createdAt,value
2023-01-08T00:01:06.741Z,95829.81
2023-01-08T00:03:34.021Z,95875.06
2023-01-08T00:06:03.094Z,95863.38
2023-01-08T00:08:31.360Z,95867.75
2023-01-08T00:10:58.486Z,95867.22
2023-01-08T00:13:25.544Z,95868.47
2023-01-08T00:15:52.349Z,95828.69
2023-01-08T00:18:19.264Z,95852.00
2023-01-08T00:20:46.574Z,95866.00
2023-01-08T00:23:17.649Z,95863.66
2023-01-08T00:25:44.455Z,95857.41
2023-01-08T00:28:11.574Z,95856.88
2023-01-08T00:30:38.437Z,95857.09
2023-01-08T00:33:05.068Z,95845.44
2023-01-08T00:35:31.866Z,95818.28
2023-01-08T00:37:58.563Z,95840.81
2023-01-08T00:40:25.159Z,95812.59
2023-01-08T00:42:51.813Z,95832.44
2023-01-08T00:45:18.443Z,95826.47
2023-01-08T00:47:45.234Z,95803.25
2023-01-08T00:50:12.039Z,95825.13
2023-01-08T00:52:39.170Z,95810.91
2023-01-08T00:55:08.857Z,95799.03
2023-01-08T00:57:37.351Z,95805.69
2023-01-08T01:00:09.218Z,95798.59
2023-01-08T01:02:36.771Z,95763.69
2023-01-08T01:05:04.586Z,95800.88
2023-01-08T01:07:31.691Z,95812.38
2023-01-08T01:09:58.518Z,95820.88
2023-01-08T01:12:25.210Z,95786.22
2023-01-08T01:14:51.908Z,95747.16
2023-01-08T01:17:18.574Z,95775.56
2023-01-08T01:19:48.157Z,95791.31
2023-01-08T01:22:14.913Z,95784.56
2023-01-08T01:24:41.544Z,95809.88
2023-01-08T01:27:08.252Z,95819.22
2023-01-08T01:29:34.911Z,95811.53
2023-01-08T01:32:01.599Z,95828.84
2023-01-08T01:34:28.313Z,95804.94
2023-01-08T01:36:55.023Z,95821.59
2023-01-08T01:39:21.844Z,95834.00
2023-01-08T01:41:48.638Z,95840.19
2023-01-08T01:44:34.277Z,95831.28
2023-01-08T01:47:05.822Z,95829.22
2023-01-08T01:49:33.619Z,95819.84
2023-01-08T01:52:03.095Z,95830.66
2023-01-08T01:54:31.639Z,95820.72
2023-01-08T01:57:00.373Z,95801.34
2023-01-08T01:59:27.534Z,95800.91
2023-01-08T02:01:56.254Z,95813.78
2023-01-08T02:04:22.993Z,95794.63
2023-01-08T02:06:55.684Z,95818.44
2023-01-08T02:09:35.647Z,95809.59
2023-01-08T02:12:18.826Z,95810.41
2023-01-08T02:14:54.961Z,95795.63
2023-01-08T02:17:33.037Z,95805.22
2023-01-08T02:20:11.887Z,95793.56
2023-01-08T02:22:54.376Z,95801.06
2023-01-08T02:25:54.466Z,95762.28
2023-01-08T02:28:22.429Z,95792.25
2023-01-08T02:30:49.824Z,95762.47
2023-01-08T02:33:16.593Z,95781.03
2023-01-08T02:35:54.279Z,95780.81
2023-01-08T02:38:22.567Z,95757.78
2023-01-08T02:41:09.549Z,95739.44
2023-01-08T02:43:42.772Z,95767.56
2023-01-08T02:46:14.507Z,95778.72
2023-01-08T02:48:57.136Z,95768.88
2023-01-08T02:51:35.553Z,95739.69
2023-01-08T02:54:09.333Z,95734.84
2023-01-08T02:56:41.675Z,95768.94
2023-01-08T02:59:11.073Z,95760.91
2023-01-08T03:01:39.125Z,95750.75
2023-01-08T03:04:19.694Z,95760.38
2023-01-08T03:06:46.625Z,95759.53
2023-01-08T03:09:14.535Z,95747.06
2023-01-08T03:11:49.169Z,95762.53
2023-01-08T03:14:23.004Z,95767.50
2023-01-08T03:16:54.095Z,95758.22
2023-01-08T03:19:41.624Z,95757.19
2023-01-08T03:22:13.380Z,95754.09
2023-01-08T03:24:42.144Z,95760.81
2023-01-08T03:27:16.592Z,95763.19
2023-01-08T03:29:44.855Z,95755.63
2023-01-08T03:32:15.346Z,95739.09
2023-01-08T03:34:44.867Z,95738.31
2023-01-08T03:37:14.391Z,95721.28
2023-01-08T03:39:55.820Z,95690.28
2023-01-08T03:42:23.355Z,95742.31
2023-01-08T03:44:50.001Z,95703.50
2023-01-08T03:47:17.015Z,95695.69
2023-01-08T03:49:45.281Z,95717.88
2023-01-08T03:52:22.271Z,95734.94
2023-01-08T03:54:48.945Z,95718.19
2023-01-08T03:57:15.556Z,95732.97
2023-01-08T03:59:42.155Z,95740.69
2023-01-08T04:02:09.181Z,95744.50
2023-01-08T04:04:36.072Z,95731.88
2023-01-08T04:07:02.884Z,95713.81
2023-01-08T04:09:29.440Z,95712.75
2023-01-08T04:11:56.074Z,95713.75
2023-01-08T04:14:22.707Z,95692.56
2023-01-08T04:16:49.419Z,95711.16
2023-01-08T04:19:16.125Z,95658.03
2023-01-08T04:21:42.789Z,95678.97
2023-01-08T04:24:09.529Z,95687.75
2023-01-08T04:26:36.163Z,95687.28
2023-01-08T04:29:04.208Z,95681.78
2023-01-08T04:31:31.810Z,95640.16
2023-01-08T04:33:58.473Z,95666.69
2023-01-08T04:36:25.116Z,95677.00
2023-01-08T04:38:51.771Z,95659.19
2023-01-08T04:41:18.562Z,95636.41
2023-01-08T04:43:45.368Z,95663.56
2023-01-08T04:46:12.114Z,95621.22
2023-01-08T04:48:38.873Z,95646.41
2023-01-08T04:51:05.821Z,95642.00
2023-01-08T04:53:36.349Z,95647.75
2023-01-08T04:56:07.795Z,95640.97
2023-01-08T04:58:35.481Z,95603.25
2023-01-08T05:01:09.870Z,95628.53
2023-01-08T05:03:36.569Z,95612.38
2023-01-08T05:06:03.269Z,95645.16
2023-01-08T05:08:29.894Z,95629.44
2023-01-08T05:10:59.459Z,95656.03
2023-01-08T05:13:26.088Z,95646.50
2023-01-08T05:15:52.732Z,95621.03
2023-01-08T05:18:19.643Z,95638.28
2023-01-08T05:20:46.217Z,95640.09
2023-01-08T05:23:12.885Z,95601.03
2023-01-08T05:25:39.452Z,95598.16
2023-01-08T05:28:06.001Z,95607.47
2023-01-08T05:30:32.615Z,95616.53
2023-01-08T05:32:59.201Z,95625.44
2023-01-08T05:35:25.832Z,95625.44
2023-01-08T05:37:52.396Z,95598.44
2023-01-08T05:40:19.030Z,95608.25
2023-01-08T05:42:45.687Z,95604.91
2023-01-08T05:45:12.343Z,95608.75
2023-01-08T05:47:38.955Z,95594.56
2023-01-08T05:50:06.023Z,95619.47
2023-01-08T05:52:32.668Z,95586.50
2023-01-08T05:55:00.185Z,95614.84
2023-01-08T05:57:26.945Z,95601.41
2023-01-08T05:59:53.529Z,95629.94
2023-01-08T06:02:23.033Z,95598.84
2023-01-08T06:04:49.748Z,95594.25
2023-01-08T06:07:16.372Z,95584.91
2023-01-08T06:09:42.987Z,95595.28
2023-01-08T06:12:09.612Z,95611.53
2023-01-08T06:14:36.148Z,95607.56
2023-01-08T06:17:02.715Z,95604.88
2023-01-08T06:19:29.296Z,95582.84
2023-01-08T06:21:56.731Z,95561.66
2023-01-08T06:24:23.456Z,95618.91
2023-01-08T06:26:50.121Z,95580.91
2023-01-08T06:29:16.687Z,95610.34
2023-01-08T06:31:43.357Z,95595.72
2023-01-08T06:34:11.443Z,95602.41
2023-01-08T06:36:38.116Z,95629.50
2023-01-08T06:39:08.487Z,95574.38
2023-01-08T06:41:35.120Z,95601.94
2023-01-08T06:44:01.784Z,95609.44
2023-01-08T06:46:28.484Z,95612.13
2023-01-08T06:48:55.150Z,95574.66
2023-01-08T06:51:21.769Z,95574.38
2023-01-08T06:53:48.959Z,95586.47
2023-01-08T06:56:15.540Z,95583.63
2023-01-08T06:58:42.180Z,95565.44
2023-01-08T07:01:14.206Z,95588.38
2023-01-08T07:03:40.931Z,95599.22
2023-01-08T07:06:08.037Z,95560.97
2023-01-08T07:08:34.632Z,95577.22
2023-01-08T07:11:04.560Z,95597.50
2023-01-08T07:13:31.180Z,95595.16
2023-01-08T07:15:57.855Z,95511.59
2023-01-08T07:18:24.529Z,95549.66
2023-01-08T07:20:51.507Z,95586.06
2023-01-08T07:23:18.117Z,95580.63
2023-01-08T07:25:44.807Z,95558.66
2023-01-08T07:28:12.858Z,95588.53
2023-01-08T07:30:39.538Z,95558.53
2023-01-08T07:33:06.149Z,95568.34
2023-01-08T07:35:32.746Z,95573.91
2023-01-08T07:37:59.474Z,95593.75
2023-01-08T07:40:26.086Z,95559.84
2023-01-08T07:43:03.858Z,95587.63
2023-01-08T07:45:32.070Z,95546.31
2023-01-08T07:47:59.310Z,95572.38
2023-01-08T07:50:26.830Z,95587.00
2023-01-08T07:52:53.528Z,95551.31
2023-01-08T07:55:20.131Z,95591.38
2023-01-08T07:57:46.700Z,95589.13
2023-01-08T08:00:14.798Z,95576.69
2023-01-08T08:02:41.511Z,95592.22
2023-01-08T08:05:08.658Z,95568.31
2023-01-08T08:07:36.075Z,95559.53
2023-01-08T08:10:04.332Z,95572.63
2023-01-08T08:12:31.071Z,95540.78
2023-01-08T08:14:57.695Z,95537.16
2023-01-08T08:17:24.536Z,95527.53
2023-01-08T08:19:51.082Z,95563.88
2023-01-08T08:22:17.696Z,95550.66
2023-01-08T08:24:44.289Z,95553.31
2023-01-08T08:27:10.869Z,95527.25
2023-01-08T08:29:37.504Z,95557.38
2023-01-08T08:32:04.315Z,95522.16
2023-01-08T08:34:30.925Z,95561.81
2023-01-08T08:36:57.537Z,95545.56
2023-01-08T08:39:24.131Z,95550.41
2023-01-08T08:41:50.779Z,95564.03
2023-01-08T08:44:17.396Z,95521.19
2023-01-08T08:46:44.123Z,95580.00
2023-01-08T08:49:10.834Z,95586.41
2023-01-08T08:51:37.477Z,95577.84
2023-01-08T08:54:04.102Z,95608.53
2023-01-08T08:56:30.843Z,95601.69
2023-01-08T08:58:58.453Z,95594.72
2023-01-08T09:01:25.369Z,95591.13
2023-01-08T09:03:52.045Z,95582.63
2023-01-08T09:06:18.688Z,95564.28
2023-01-08T09:08:45.338Z,95589.25
2023-01-08T09:11:14.263Z,95560.44
2023-01-08T09:13:41.081Z,95565.56
2023-01-08T09:16:07.997Z,95592.81
2023-01-08T09:18:34.637Z,95570.88
2023-01-08T09:21:05.828Z,95589.63
2023-01-08T09:23:33.105Z,95577.88
2023-01-08T09:26:03.821Z,95578.94
2023-01-08T09:28:30.902Z,95602.69
2023-01-08T09:31:02.097Z,95587.81
2023-01-08T09:33:29.250Z,95561.75
2023-01-08T09:35:55.823Z,95575.78
2023-01-08T09:38:22.497Z,95581.31
2023-01-08T09:40:56.577Z,95550.88
2023-01-08T09:43:26.637Z,95595.97
2023-01-08T09:45:57.942Z,95582.09
2023-01-08T09:48:28.758Z,95573.28
2023-01-08T09:50:56.359Z,95616.56
2023-01-08T09:53:23.445Z,95585.16
2023-01-08T09:56:09.836Z,95577.06
2023-01-08T09:58:42.233Z,95572.50
2023-01-08T10:01:13.722Z,95585.38
2023-01-08T10:03:45.107Z,95582.56
2023-01-08T10:06:13.516Z,95579.78
2023-01-08T10:08:40.215Z,95548.97
2023-01-08T10:11:09.095Z,95560.25
2023-01-08T10:13:39.501Z,95562.00
2023-01-08T10:16:08.298Z,95567.34
2023-01-08T10:18:35.294Z,95573.91
2023-01-08T10:21:01.934Z,95547.66
2023-01-08T10:23:28.634Z,95557.44
2023-01-08T10:25:58.290Z,95545.78
2023-01-08T10:28:30.248Z,95524.13
2023-01-08T10:31:05.684Z,95560.78
2023-01-08T10:33:42.368Z,95542.03
2023-01-08T10:36:11.995Z,95553.50
2023-01-08T10:38:54.189Z,95544.94
2023-01-08T10:41:22.030Z,95527.69
2023-01-08T10:43:57.440Z,95555.69
2023-01-08T10:46:31.140Z,95536.59
2023-01-08T10:49:00.891Z,95532.84
2023-01-08T10:51:31.141Z,95551.59
2023-01-08T10:54:26.423Z,95557.69
2023-01-08T10:56:53.106Z,95546.16
2023-01-08T10:59:20.275Z,95539.59
2023-01-08T11:01:48.622Z,95528.97
2023-01-08T11:04:36.484Z,95513.81
2023-01-08T11:07:07.272Z,95534.47
2023-01-08T11:09:40.768Z,95525.88
2023-01-08T11:12:41.012Z,95526.72
2023-01-08T11:15:28.215Z,95516.97
2023-01-08T11:17:54.936Z,95480.19
2023-01-08T11:20:28.155Z,95504.06
2023-01-08T11:23:23.889Z,95501.31
2023-01-08T11:26:19.695Z,95504.19
2023-01-08T11:29:20.559Z,95505.00
2023-01-08T11:31:57.291Z,95490.81
2023-01-08T11:34:48.697Z,95512.47
2023-01-08T11:37:22.228Z,95490.75
2023-01-08T11:39:49.925Z,95484.47
2023-01-08T11:42:31.395Z,95479.53
2023-01-08T11:45:31.228Z,95484.22
2023-01-08T11:48:11.503Z,95486.59
2023-01-08T11:51:16.621Z,95483.38
2023-01-08T11:53:59.489Z,95446.69
2023-01-08T11:56:56.406Z,95478.47
2023-01-08T11:59:46.301Z,95480.97
2023-01-08T12:02:19.028Z,95473.59
2023-01-08T12:05:21.413Z,95472.38
2023-01-08T12:07:53.872Z,95471.94
2023-01-08T12:10:31.090Z,95445.31
2023-01-08T12:13:16.360Z,95455.63
2023-01-08T12:16:18.966Z,95438.56
2023-01-08T12:19:13.681Z,95458.06
2023-01-08T12:21:56.326Z,95447.97
2023-01-08T12:24:54.239Z,95438.13
2023-01-08T12:27:55.813Z,95436.00
2023-01-08T12:30:48.122Z,95440.44
2023-01-08T12:33:32.631Z,95425.53
2023-01-08T12:36:02.036Z,95437.09
2023-01-08T12:38:32.785Z,95406.34
2023-01-08T12:41:04.953Z,95433.41
2023-01-08T12:43:35.433Z,95427.44
2023-01-08T12:46:03.436Z,95410.50
2023-01-08T12:48:33.251Z,95425.25
2023-01-08T12:51:07.774Z,95422.97
2023-01-08T12:53:55.853Z,95436.38
2023-01-08T12:56:56.135Z,95426.69
2023-01-08T12:59:54.280Z,95421.56
2023-01-08T13:02:51.921Z,95418.03
2023-01-08T13:05:18.583Z,95409.72
2023-01-08T13:07:48.299Z,95403.25
2023-01-08T13:10:32.427Z,95393.88
2023-01-08T13:13:01.888Z,95389.56
2023-01-08T13:15:31.045Z,95361.25
2023-01-08T13:18:05.623Z,95382.63
2023-01-08T13:20:32.536Z,95362.16
2023-01-08T13:23:05.444Z,95350.63
2023-01-08T13:25:38.114Z,95371.88
2023-01-08T13:28:29.622Z,95369.88
2023-01-08T13:31:09.179Z,95344.19
2023-01-08T13:33:35.758Z,95368.53
2023-01-08T13:36:14.535Z,95368.84
2023-01-08T13:38:41.558Z,95348.84
2023-01-08T13:41:30.041Z,95340.34
2023-01-08T13:44:16.302Z,95370.06
2023-01-08T13:46:44.159Z,95336.50
2023-01-08T13:49:28.945Z,95365.13
2023-01-08T13:51:55.766Z,95328.19
2023-01-08T13:54:29.009Z,95370.22
2023-01-08T13:57:04.153Z,95346.97
2023-01-08T13:59:41.947Z,95348.19
2023-01-08T14:02:34.349Z,95358.22
2023-01-08T14:05:12.197Z,95334.03
2023-01-08T14:07:39.338Z,95349.88
2023-01-08T14:10:09.322Z,95347.59
2023-01-08T14:12:35.987Z,95340.84
2023-01-08T14:15:04.520Z,95315.00
2023-01-08T14:17:32.570Z,95321.31
2023-01-08T14:19:59.606Z,95348.50
2023-01-08T14:22:33.666Z,95343.16
2023-01-08T14:25:04.202Z,95315.16
2023-01-08T14:27:31.980Z,95317.16
2023-01-08T14:29:58.927Z,95326.69
2023-01-08T14:32:30.631Z,95328.69
2023-01-08T14:35:03.494Z,95308.38
2023-01-08T14:37:30.239Z,95285.16
2023-01-08T14:39:56.805Z,95307.91
2023-01-08T14:42:47.359Z,95286.09
2023-01-08T14:45:24.719Z,95221.69
2023-01-08T14:47:56.512Z,95306.06
2023-01-08T14:50:33.633Z,95304.84
2023-01-08T14:53:25.752Z,95314.19
2023-01-08T14:55:55.112Z,95325.59
2023-01-08T14:58:28.604Z,95322.06
2023-01-08T15:00:59.410Z,95330.97
2023-01-08T15:03:34.306Z,95325.44
2023-01-08T15:06:05.397Z,95320.38
2023-01-08T15:08:34.892Z,95315.44
2023-01-08T15:11:06.289Z,95313.28
2023-01-08T15:13:38.237Z,95284.72
2023-01-08T15:16:11.911Z,95302.53
2023-01-08T15:18:44.933Z,95307.44
2023-01-08T15:21:17.400Z,95290.69
2023-01-08T15:23:51.610Z,95292.06
2023-01-08T15:26:18.582Z,95314.81
2023-01-08T15:28:53.877Z,95311.78
2023-01-08T15:31:28.609Z,95304.38
2023-01-08T15:33:55.986Z,95305.63
2023-01-08T15:36:22.799Z,95315.91
2023-01-08T15:38:50.203Z,95302.41
2023-01-08T15:41:40.601Z,95314.84
2023-01-08T15:44:09.046Z,95305.47
2023-01-08T15:46:36.304Z,95283.75
2023-01-08T15:49:03.326Z,95302.53
2023-01-08T15:51:33.195Z,95311.75
2023-01-08T15:54:02.819Z,95314.53
2023-01-08T15:56:29.977Z,95289.78
2023-01-08T15:58:56.988Z,95313.91
2023-01-08T16:01:24.171Z,95316.22
2023-01-08T16:03:51.273Z,95287.78
2023-01-08T16:06:20.964Z,95292.06
2023-01-08T16:08:48.112Z,95316.22
2023-01-08T16:11:16.681Z,95288.22
2023-01-08T16:13:43.677Z,95310.81
2023-01-08T16:16:16.005Z,95307.91
2023-01-08T16:18:42.941Z,95305.59
2023-01-08T16:21:10.693Z,95292.38
2023-01-08T16:23:39.521Z,95316.03
2023-01-08T16:26:11.648Z,95286.38
2023-01-08T16:28:39.110Z,95310.06
2023-01-08T16:31:07.301Z,95311.28
2023-01-08T16:33:34.603Z,95278.97
2023-01-08T16:36:04.011Z,95307.72
2023-01-08T16:38:33.472Z,95277.91
2023-01-08T16:41:00.719Z,95299.91
2023-01-08T16:43:30.103Z,95302.03
2023-01-08T16:45:57.403Z,95295.28
2023-01-08T16:48:24.255Z,95301.28
2023-01-08T16:50:51.168Z,95264.66
2023-01-08T16:53:18.118Z,95286.03
2023-01-08T16:55:44.956Z,95288.66
2023-01-08T16:58:12.256Z,95270.66
2023-01-08T17:00:42.250Z,95255.72
2023-01-08T17:03:09.135Z,95251.09
2023-01-08T17:05:36.910Z,95254.47
2023-01-08T17:08:03.693Z,95235.63
2023-01-08T17:10:30.427Z,95230.50
2023-01-08T17:12:59.809Z,95223.75
2023-01-08T17:15:26.654Z,95240.66
2023-01-08T17:17:53.381Z,95223.00
2023-01-08T17:20:20.326Z,95235.44
2023-01-08T17:22:47.125Z,95226.69
2023-01-08T17:25:14.193Z,95220.84
2023-01-08T17:27:42.095Z,95203.44
2023-01-08T17:30:13.867Z,95214.53
2023-01-08T17:32:41.024Z,95213.72
2023-01-08T17:35:08.285Z,95177.41
2023-01-08T17:37:35.118Z,95200.97
2023-01-08T17:40:02.376Z,95179.59
2023-01-08T17:42:30.418Z,95178.53
2023-01-08T17:45:00.286Z,95177.00
2023-01-08T17:47:27.280Z,95124.59
2023-01-08T17:49:57.520Z,95153.19
2023-01-08T17:52:25.721Z,95153.38
2023-01-08T17:54:52.886Z,95152.66
2023-01-08T17:57:21.051Z,95131.91
2023-01-08T17:59:48.408Z,95150.66
2023-01-08T18:02:16.743Z,95176.59
2023-01-08T18:04:45.581Z,95171.84
2023-01-08T18:07:15.409Z,95174.44
2023-01-08T18:09:42.010Z,95111.72
2023-01-08T18:12:11.195Z,95122.38
2023-01-08T18:14:39.081Z,95158.44
2023-01-08T18:17:06.316Z,95144.78
2023-01-08T18:19:33.215Z,95131.09
2023-01-08T18:22:00.818Z,95123.91
2023-01-08T18:24:27.695Z,95100.50
2023-01-08T18:26:54.619Z,95141.22
2023-01-08T18:29:21.317Z,95152.41
2023-01-08T18:31:48.011Z,95152.13
2023-01-08T18:34:15.266Z,95138.97
2023-01-08T18:36:42.682Z,95137.41
2023-01-08T18:39:09.547Z,95111.13
2023-01-08T18:41:55.038Z,95104.00
2023-01-08T18:44:21.725Z,95125.53
2023-01-08T18:46:48.477Z,95093.41
2023-01-08T18:49:15.516Z,95117.03
2023-01-08T18:51:42.458Z,95114.72
2023-01-08T18:54:11.186Z,95110.53
2023-01-08T18:56:38.094Z,95084.44
2023-01-08T18:59:06.736Z,95088.25
2023-01-08T19:01:35.431Z,95103.53
2023-01-08T19:04:02.711Z,95073.00
2023-01-08T19:06:29.714Z,95083.94
2023-01-08T19:08:58.568Z,95073.06
2023-01-08T19:11:25.839Z,95052.06
2023-01-08T19:13:57.151Z,95047.09
2023-01-08T19:16:24.236Z,95051.25
2023-01-08T19:18:51.087Z,95085.59
2023-01-08T19:21:19.373Z,95097.72
2023-01-08T19:23:47.024Z,95094.75
2023-01-08T19:26:14.683Z,95061.75
2023-01-08T19:28:42.478Z,95084.72
2023-01-08T19:31:12.797Z,95080.22
2023-01-08T19:33:40.097Z,95085.28
2023-01-08T19:36:15.934Z,95063.53
2023-01-08T19:38:44.393Z,95042.78
2023-01-08T19:41:30.792Z,95068.78
2023-01-08T19:43:58.364Z,95071.09
2023-01-08T19:46:25.468Z,95049.28
2023-01-08T19:48:52.687Z,95062.03
2023-01-08T19:51:19.519Z,95063.28
2023-01-08T19:53:46.439Z,95060.63
2023-01-08T19:56:14.759Z,95061.22
2023-01-08T19:58:41.789Z,95061.84
2023-01-08T20:01:20.137Z,95019.03
2023-01-08T20:03:47.599Z,95053.69
2023-01-08T20:06:19.587Z,95035.16
2023-01-08T20:08:48.147Z,95018.63
2023-01-08T20:11:17.154Z,95039.59
2023-01-08T20:13:43.931Z,95000.66
2023-01-08T20:16:16.979Z,94993.88
2023-01-08T20:18:43.967Z,94994.22
2023-01-08T20:21:17.002Z,95002.47
2023-01-08T20:23:47.733Z,95001.56
2023-01-08T20:26:17.928Z,95009.53
2023-01-08T20:28:46.179Z,95012.16
2023-01-08T20:31:15.476Z,94996.53
2023-01-08T20:33:43.104Z,95005.63
2023-01-08T20:36:17.961Z,95013.59
2023-01-08T20:38:45.628Z,94978.16
2023-01-08T20:41:12.835Z,95004.41
2023-01-08T20:43:40.940Z,95006.41
2023-01-08T20:46:09.951Z,95007.75
2023-01-08T20:48:42.971Z,94992.50
2023-01-08T20:51:13.521Z,94981.31
2023-01-08T20:53:40.545Z,94999.84
2023-01-08T20:56:12.656Z,94998.19
2023-01-08T20:58:41.446Z,94953.69
2023-01-08T21:01:10.758Z,94894.50
2023-01-08T21:03:38.648Z,94951.94
2023-01-08T21:06:10.647Z,94961.94
2023-01-08T21:08:37.333Z,94936.03
2023-01-08T21:11:08.938Z,94945.66
2023-01-08T21:13:36.409Z,94970.38
2023-01-08T21:16:14.894Z,94949.63
2023-01-08T21:18:47.484Z,94946.41
2023-01-08T21:21:20.548Z,94944.13
2023-01-08T21:23:47.881Z,94915.59
2023-01-08T21:26:15.868Z,94941.44
2023-01-08T21:28:43.224Z,94930.56
2023-01-08T21:31:16.601Z,94932.56
2023-01-08T21:33:47.038Z,94924.16
2023-01-08T21:36:19.009Z,94929.69
2023-01-08T21:38:46.222Z,94919.59
2023-01-08T21:41:42.950Z,94914.66
2023-01-08T21:44:34.358Z,94912.38
2023-01-08T21:47:02.319Z,94913.16
2023-01-08T21:49:29.382Z,94917.91
2023-01-08T21:52:14.741Z,94899.06
2023-01-08T21:54:44.074Z,94883.72
2023-01-08T21:57:10.794Z,94901.38
2023-01-08T21:59:37.865Z,94903.97
2023-01-08T22:02:05.094Z,94899.97
2023-01-08T22:04:32.360Z,94894.00
2023-01-08T22:06:59.046Z,94865.94
2023-01-08T22:09:25.647Z,94881.28
2023-01-08T22:11:53.833Z,94898.44
2023-01-08T22:14:20.436Z,94864.44
2023-01-08T22:16:47.131Z,94883.16
2023-01-08T22:19:14.007Z,94852.63
2023-01-08T22:21:40.721Z,94878.09
2023-01-08T22:24:07.483Z,94878.09
2023-01-08T22:26:37.322Z,94875.19
2023-01-08T22:29:06.012Z,94882.41
2023-01-08T22:31:33.063Z,94875.06
2023-01-08T22:34:00.178Z,94877.50
2023-01-08T22:36:26.851Z,94876.28
2023-01-08T22:38:53.644Z,94851.13
2023-01-08T22:41:22.494Z,94845.50
2023-01-08T22:43:56.734Z,94868.03
2023-01-08T22:46:26.919Z,94888.59
2023-01-08T22:48:53.891Z,94888.88
2023-01-08T22:51:27.244Z,94880.13
2023-01-08T22:53:55.166Z,94850.72
2023-01-08T22:56:22.032Z,94867.56
2023-01-08T22:58:48.677Z,94846.84
2023-01-08T23:01:24.203Z,94862.50
2023-01-08T23:03:52.787Z,94849.47
2023-01-08T23:06:20.961Z,94864.03
2023-01-08T23:08:48.052Z,94831.53
2023-01-08T23:11:17.031Z,94843.94
2023-01-08T23:13:44.133Z,94861.59
2023-01-08T23:16:13.145Z,94852.06
2023-01-08T23:18:39.867Z,94853.59
2023-01-08T23:21:18.252Z,94836.63
2023-01-08T23:23:45.521Z,94837.22
2023-01-08T23:26:21.121Z,94836.63
2023-01-08T23:28:49.519Z,94808.88
2023-01-08T23:31:23.043Z,94799.69
2023-01-08T23:33:50.072Z,94806.47
2023-01-08T23:36:19.072Z,94805.06
2023-01-08T23:38:49.774Z,94805.06
2023-01-08T23:41:18.953Z,94776.41
2023-01-08T23:43:46.307Z,94760.66
2023-01-08T23:46:13.785Z,94776.72
2023-01-08T23:48:41.106Z,94785.91
2023-01-08T23:51:08.365Z,94781.16
2023-01-08T23:53:35.110Z,94787.94
2023-01-08T23:56:01.886Z,94765.25
2023-01-08T23:58:28.489Z,94776.59
